Time;durP1;ratioP1;P1;durP2;ratioP2;P2;SDS_P1;SDS_P2;PMS_P1;PMS_P2;Temp;Humidity;BMP_temperature;BMP_pressure;BME280_temperature;BME280_humidity;BME280_pressure;Samples;Min_cycle;Max_cycle;Signal;HPM_P1;HPM_P2
2022/08/21 00:00:13;;;;;;;13.20;8.10;;;;;;;;;;5050063;28;20044;-61
2022/08/21 00:02:46;;;;;;;14.03;7.50;;;;;;;;;;5051175;28;20080;-61
2022/08/21 00:05:12;;;;;;;14.15;8.68;;;;;;;;;;5049404;28;20503;-61
2022/08/21 00:07:38;;;;;;;11.10;8.20;;;;;;;;;;5047767;28;20101;-61
2022/08/21 00:10:04;;;;;;;14.07;8.03;;;;;;;;;;5045774;28;20057;-61
2022/08/21 00:12:31;;;;;;;14.10;8.87;;;;;;;;;;5048787;28;20053;-60
2022/08/21 00:14:57;;;;;;;18.53;10.13;;;;;;;;;;5049578;28;20056;-61
2022/08/21 00:17:23;;;;;;;21.07;10.43;;;;;;;;;;5048679;28;20851;-61
2022/08/21 00:19:49;;;;;;;21.63;12.40;;;;;;;;;;5049544;28;20091;-61
2022/08/21 00:22:15;;;;;;;16.73;12.30;;;;;;;;;;5048380;28;20110;-61
2022/08/21 00:24:41;;;;;;;24.57;13.97;;;;;;;;;;5049708;28;20469;-61
2022/08/21 00:27:08;;;;;;;20.50;12.67;;;;;;;;;;5048034;28;20391;-61
2022/08/21 00:29:34;;;;;;;19.83;12.30;;;;;;;;;;5049246;28;20053;-61
2022/08/21 00:32:00;;;;;;;23.87;13.23;;;;;;;;;;5049051;28;20048;-61
2022/08/21 00:34:26;;;;;;;24.87;15.53;;;;;;;;;;5049692;28;20080;-61
2022/08/21 00:36:52;;;;;;;23.70;15.10;;;;;;;;;;5048459;28;20049;-61
2022/08/21 00:39:18;;;;;;;24.53;16.60;;;;;;;;;;5049500;28;20076;-61
2022/08/21 00:41:45;;;;;;;33.27;17.37;;;;;;;;;;5049720;28;20056;-61
2022/08/21 00:44:13;;;;;;;27.63;19.07;;;;;;;;;;5049129;28;20049;-61
2022/08/21 00:46:39;;;;;;;28.47;17.37;;;;;;;;;;5047654;28;20045;-61
2022/08/21 00:49:06;;;;;;;27.10;18.03;;;;;;;;;;5049093;28;20076;-61
2022/08/21 00:51:41;;;;;;;27.27;18.30;;;;;;;;;;5049531;28;20106;-61
2022/08/21 00:54:07;;;;;;;25.23;17.57;;;;;;;;;;5048291;28;20048;-61
2022/08/21 00:56:33;;;;;;;33.87;19.20;;;;;;;;;;5047107;28;20120;-61
2022/08/21 00:59:00;;;;;;;26.13;19.47;;;;;;;;;;5049499;28;20052;-61
2022/08/21 01:01:27;;;;;;;28.07;19.40;;;;;;;;;;5048388;28;20101;-61
2022/08/21 01:03:53;;;;;;;25.27;18.53;;;;;;;;;;5047687;28;20053;-61
2022/08/21 01:06:19;;;;;;;30.53;21.07;;;;;;;;;;5047922;28;20049;-60
2022/08/21 01:08:46;;;;;;;33.23;20.67;;;;;;;;;;5049854;28;20040;-61
2022/08/21 01:11:12;;;;;;;34.17;20.60;;;;;;;;;;5048127;28;20045;-60
2022/08/21 01:13:45;;;;;;;30.07;20.37;;;;;;;;;;5049115;28;20103;-61
2022/08/21 01:16:12;;;;;;;32.75;19.52;;;;;;;;;;5048698;28;20049;-61
2022/08/21 01:18:38;;;;;;;34.30;21.77;;;;;;;;;;5048639;28;20626;-60
2022/08/21 01:21:06;;;;;;;33.87;20.87;;;;;;;;;;5048734;28;20135;-61
2022/08/21 01:23:33;;;;;;;42.43;23.97;;;;;;;;;;5048837;28;20050;-61
2022/08/21 01:25:59;;;;;;;34.53;21.73;;;;;;;;;;5049195;28;20090;-61
2022/08/21 01:28:27;;;;;;;40.30;23.73;;;;;;;;;;5048570;28;20057;-61
2022/08/21 01:30:54;;;;;;;34.47;22.47;;;;;;;;;;5048937;28;20102;-61
2022/08/21 01:33:22;;;;;;;38.67;22.93;;;;;;;;;;5047223;28;20053;-60
2022/08/21 01:35:49;;;;;;;34.27;21.93;;;;;;;;;;5049550;28;20136;-61
2022/08/21 01:38:15;;;;;;;34.67;22.23;;;;;;;;;;5047199;28;20087;-61
2022/08/21 01:40:41;;;;;;;31.93;20.90;;;;;;;;;;5048041;28;20045;-60
2022/08/21 01:43:07;;;;;;;30.60;21.50;;;;;;;;;;5048117;28;20500;-61
2022/08/21 01:45:33;;;;;;;30.57;21.77;;;;;;;;;;5047382;28;20049;-61
2022/08/21 01:47:59;;;;;;;48.20;26.60;;;;;;;;;;5048269;28;20056;-61
2022/08/21 01:50:25;;;;;;;31.53;20.73;;;;;;;;;;5048986;28;20037;-61
2022/08/21 01:52:51;;;;;;;30.23;20.13;;;;;;;;;;5047667;28;20041;-60
2022/08/21 01:55:18;;;;;;;31.90;21.17;;;;;;;;;;5049336;28;20052;-61
2022/08/21 01:57:44;;;;;;;35.43;21.80;;;;;;;;;;5047292;28;20044;-61
2022/08/21 02:00:11;;;;;;;33.63;21.30;;;;;;;;;;5046953;28;20090;-60
2022/08/21 02:02:38;;;;;;;43.20;22.37;;;;;;;;;;5046434;28;20773;-61
2022/08/21 02:05:05;;;;;;;31.87;22.03;;;;;;;;;;5047543;28;20537;-60
2022/08/21 02:07:38;;;;;;;34.27;20.97;;;;;;;;;;5048282;28;20728;-61
2022/08/21 02:10:06;;;;;;;36.83;23.13;;;;;;;;;;5047894;28;20519;-60
2022/08/21 02:12:32;;;;;;;33.43;20.87;;;;;;;;;;5048679;28;20056;-61
2022/08/21 02:14:58;;;;;;;30.77;18.90;;;;;;;;;;5044674;28;20048;-61
2022/08/21 02:17:24;;;;;;;32.47;20.93;;;;;;;;;;5048363;28;20041;-60
2022/08/21 02:19:50;;;;;;;30.80;19.00;;;;;;;;;;5047310;28;20077;-61
2022/08/21 02:22:16;;;;;;;32.10;19.00;;;;;;;;;;5047295;28;20503;-60
2022/08/21 02:24:43;;;;;;;30.30;19.63;;;;;;;;;;5045592;28;20513;-61
2022/08/21 02:27:09;;;;;;;32.17;19.00;;;;;;;;;;5047643;28;20048;-61
2022/08/21 02:29:35;;;;;;;31.57;19.83;;;;;;;;;;5048061;28;20060;-61
2022/08/21 02:32:01;;;;;;;32.57;19.60;;;;;;;;;;5046932;28;20053;-61
2022/08/21 02:34:27;;;;;;;30.00;19.70;;;;;;;;;;5047884;28;20044;-61
2022/08/21 02:36:53;;;;;;;29.63;18.30;;;;;;;;;;5047074;28;20041;-61
2022/08/21 02:39:19;;;;;;;32.87;18.77;;;;;;;;;;5048120;28;20053;-61
2022/08/21 02:41:45;;;;;;;28.57;18.33;;;;;;;;;;5047275;28;20495;-61
2022/08/21 02:44:11;;;;;;;25.77;18.47;;;;;;;;;;5046271;28;20407;-61
2022/08/21 02:46:37;;;;;;;29.87;18.50;;;;;;;;;;5047142;28;20041;-60
2022/08/21 02:49:03;;;;;;;29.40;18.03;;;;;;;;;;5048738;28;20457;-61
2022/08/21 02:51:30;;;;;;;27.40;17.50;;;;;;;;;;5050456;28;20041;-61
2022/08/21 02:53:56;;;;;;;25.73;16.47;;;;;;;;;;5052014;28;20530;-61
2022/08/21 02:56:22;;;;;;;23.97;17.23;;;;;;;;;;5050404;28;20033;-61
2022/08/21 02:58:51;;;;;;;25.97;16.30;;;;;;;;;;5051698;28;20056;-61
2022/08/21 03:01:17;;;;;;;26.33;16.80;;;;;;;;;;5050524;28;20045;-61
2022/08/21 03:03:45;;;;;;;26.93;16.67;;;;;;;;;;5052123;28;20041;-61
2022/08/21 03:06:12;;;;;;;21.57;16.03;;;;;;;;;;5050331;28;20051;-61
2022/08/21 03:08:38;;;;;;;24.30;15.87;;;;;;;;;;5051735;28;20040;-61
2022/08/21 03:11:04;;;;;;;30.87;16.37;;;;;;;;;;5051039;28;20430;-61
2022/08/21 03:13:31;;;;;;;25.90;16.27;;;;;;;;;;5050079;28;20041;-61
2022/08/21 03:15:57;;;;;;;20.90;15.00;;;;;;;;;;5050807;28;20041;-61
2022/08/21 03:18:24;;;;;;;25.07;16.43;;;;;;;;;;5050361;28;20045;-61
2022/08/21 03:20:51;;;;;;;30.37;16.67;;;;;;;;;;5050338;28;20497;-61
2022/08/21 03:23:17;;;;;;;26.20;16.83;;;;;;;;;;5050035;28;20528;-61
2022/08/21 03:25:44;;;;;;;26.10;16.93;;;;;;;;;;5051692;28;20533;-61
2022/08/21 03:28:13;;;;;;;29.80;17.57;;;;;;;;;;5050748;28;20056;-61
2022/08/21 03:30:39;;;;;;;25.77;16.80;;;;;;;;;;5050588;28;20053;-61
2022/08/21 03:33:05;;;;;;;28.53;16.93;;;;;;;;;;5049177;28;20048;-61
2022/08/21 03:35:31;;;;;;;33.80;19.70;;;;;;;;;;5048597;28;20074;-61
2022/08/21 03:37:57;;;;;;;27.93;18.30;;;;;;;;;;5049626;28;20049;-61
2022/08/21 03:40:24;;;;;;;28.03;19.17;;;;;;;;;;5049345;28;20056;-61
2022/08/21 03:42:50;;;;;;;31.07;18.57;;;;;;;;;;5048779;28;20053;-61
2022/08/21 03:45:17;;;;;;;27.83;16.90;;;;;;;;;;5048496;28;20127;-61
2022/08/21 03:47:53;;;;;;;28.03;17.73;;;;;;;;;;5046771;28;20048;-61
2022/08/21 03:50:19;;;;;;;31.83;18.03;;;;;;;;;;5048775;28;20052;-61
2022/08/21 03:52:45;;;;;;;32.33;18.93;;;;;;;;;;5048578;28;20045;-61
2022/08/21 03:55:11;;;;;;;27.93;18.40;;;;;;;;;;5049617;28;20036;-61
2022/08/21 03:57:37;;;;;;;30.40;18.33;;;;;;;;;;5048781;28;20048;-62
2022/08/21 04:00:04;;;;;;;26.10;18.40;;;;;;;;;;5049362;28;20045;-61
2022/08/21 04:02:32;;;;;;;28.60;18.83;;;;;;;;;;5050586;28;20581;-61
2022/08/21 04:04:58;;;;;;;31.63;18.23;;;;;;;;;;5051040;28;20057;-61
2022/08/21 04:07:24;;;;;;;25.70;17.00;;;;;;;;;;5051769;28;20056;-61
2022/08/21 04:09:50;;;;;;;22.83;16.90;;;;;;;;;;5050764;28;20060;-61
2022/08/21 04:12:16;;;;;;;29.63;18.33;;;;;;;;;;5050619;28;20052;-61
2022/08/21 04:14:42;;;;;;;24.93;15.77;;;;;;;;;;5049955;28;20037;-60
2022/08/21 04:17:08;;;;;;;24.23;16.20;;;;;;;;;;5051719;28;20049;-61
2022/08/21 04:19:34;;;;;;;26.50;16.53;;;;;;;;;;5049861;28;20558;-61
2022/08/21 04:22:00;;;;;;;25.27;16.07;;;;;;;;;;5049205;28;20466;-61
2022/08/21 04:24:26;;;;;;;21.67;14.37;;;;;;;;;;5050197;28;20048;-61
2022/08/21 04:26:52;;;;;;;29.07;16.63;;;;;;;;;;5049015;28;20083;-61
2022/08/21 04:29:19;;;;;;;23.90;15.67;;;;;;;;;;5049218;28;20059;-61
2022/08/21 04:31:45;;;;;;;24.73;16.77;;;;;;;;;;5049994;28;20049;-61
2022/08/21 04:34:12;;;;;;;22.03;14.63;;;;;;;;;;5047991;28;20045;-61
2022/08/21 04:36:38;;;;;;;28.27;15.27;;;;;;;;;;5049266;28;20040;-61
2022/08/21 04:39:04;;;;;;;21.77;14.57;;;;;;;;;;5048090;28;20045;-61
2022/08/21 04:41:30;;;;;;;23.77;15.77;;;;;;;;;;5049101;28;20453;-61
2022/08/21 04:43:56;;;;;;;24.43;15.13;;;;;;;;;;5049310;28;20049;-61
2022/08/21 04:46:22;;;;;;;19.63;14.10;;;;;;;;;;5047604;28;20041;-61
2022/08/21 04:48:48;;;;;;;19.27;13.20;;;;;;;;;;5048361;28;20044;-61
2022/08/21 04:51:14;;;;;;;17.00;12.57;;;;;;;;;;5049098;28;20057;-61
2022/08/21 04:53:45;;;;;;;21.97;13.43;;;;;;;;;;5048177;28;20099;-61
2022/08/21 04:56:13;;;;;;;24.70;14.43;;;;;;;;;;5048041;28;20040;-61
2022/08/21 04:58:39;;;;;;;18.30;13.37;;;;;;;;;;5048941;28;20047;-61
2022/08/21 05:01:07;;;;;;;21.50;12.67;;;;;;;;;;5047762;28;20479;-61
2022/08/21 05:03:33;;;;;;;24.60;13.13;;;;;;;;;;5049651;28;20049;-61
2022/08/21 05:06:00;;;;;;;18.97;11.53;;;;;;;;;;5048152;28;20048;-61
2022/08/21 05:08:28;;;;;;;18.70;13.03;;;;;;;;;;5040082;28;20059;-61
2022/08/21 05:10:54;;;;;;;22.00;12.23;;;;;;;;;;5049670;28;20156;-61
2022/08/21 05:13:20;;;;;;;21.13;13.47;;;;;;;;;;5046632;28;20115;-62
2022/08/21 05:15:47;;;;;;;19.57;12.60;;;;;;;;;;5047313;28;20419;-61
2022/08/21 05:18:13;;;;;;;17.73;13.40;;;;;;;;;;5047915;28;20116;-61
2022/08/21 05:20:39;;;;;;;19.60;12.93;;;;;;;;;;5049727;28;20421;-61
2022/08/21 05:23:09;;;;;;;22.27;12.60;;;;;;;;;;5048078;28;20041;-61
2022/08/21 05:25:35;;;;;;;20.67;12.13;;;;;;;;;;5034327;28;20432;-61
2022/08/21 05:28:01;;;;;;;20.47;11.70;;;;;;;;;;5030221;28;20052;-61
2022/08/21 05:30:28;;;;;;;23.67;11.57;;;;;;;;;;5046064;28;20056;-61
2022/08/21 05:32:58;;;;;;;15.87;11.00;;;;;;;;;;5048523;28;20052;-61
2022/08/21 05:35:24;;;;;;;22.13;12.10;;;;;;;;;;5049644;28;20053;-61
2022/08/21 05:37:50;;;;;;;14.77;10.73;;;;;;;;;;5049145;28;20562;-61
2022/08/21 05:40:17;;;;;;;22.53;12.40;;;;;;;;;;5049312;28;20056;-61
2022/08/21 05:42:43;;;;;;;17.87;10.77;;;;;;;;;;5048383;28;20064;-61
2022/08/21 05:45:09;;;;;;;16.60;9.60;;;;;;;;;;5048575;28;20048;-61
2022/08/21 05:47:35;;;;;;;23.50;11.27;;;;;;;;;;5049280;28;20045;-61
2022/08/21 05:50:01;;;;;;;14.40;10.30;;;;;;;;;;5048814;28;20040;-62
2022/08/21 05:52:27;;;;;;;16.97;9.80;;;;;;;;;;5044625;28;20040;-61
2022/08/21 05:54:54;;;;;;;20.70;9.70;;;;;;;;;;5048183;28;20049;-61
2022/08/21 05:57:20;;;;;;;17.20;10.50;;;;;;;;;;5047938;28;20107;-61
2022/08/21 05:59:46;;;;;;;23.03;10.20;;;;;;;;;;5049502;28;20083;-61
2022/08/21 06:02:12;;;;;;;19.83;9.37;;;;;;;;;;5049246;28;20044;-61
2022/08/21 06:04:39;;;;;;;18.30;9.07;;;;;;;;;;5048932;28;20041;-61
2022/08/21 06:07:05;;;;;;;14.23;9.33;;;;;;;;;;5049122;28;20049;-61
2022/08/21 06:09:31;;;;;;;21.57;9.33;;;;;;;;;;5047136;28;20045;-61
2022/08/21 06:11:57;;;;;;;14.07;9.10;;;;;;;;;;5048803;28;20040;-61
2022/08/21 06:14:23;;;;;;;16.63;9.70;;;;;;;;;;5045176;28;20116;-61
2022/08/21 06:16:50;;;;;;;19.83;9.37;;;;;;;;;;5045970;28;20152;-61
2022/08/21 06:19:16;;;;;;;17.83;8.73;;;;;;;;;;5046766;28;20049;-61
2022/08/21 06:21:42;;;;;;;15.57;8.40;;;;;;;;;;5047280;28;20039;-61
2022/08/21 06:24:08;;;;;;;20.80;8.13;;;;;;;;;;5050291;28;20040;-61
2022/08/21 06:26:34;;;;;;;13.87;8.23;;;;;;;;;;5049755;28;20045;-61
2022/08/21 06:29:00;;;;;;;14.53;7.73;;;;;;;;;;5050521;28;20045;-61
2022/08/21 06:31:27;;;;;;;11.27;8.30;;;;;;;;;;5051593;28;20045;-61
2022/08/21 06:33:53;;;;;;;12.97;8.47;;;;;;;;;;5050580;28;20049;-61
2022/08/21 06:36:20;;;;;;;16.97;8.37;;;;;;;;;;5051934;28;20041;-61
2022/08/21 06:38:47;;;;;;;13.30;7.27;;;;;;;;;;5052572;28;20049;-61
2022/08/21 06:41:13;;;;;;;13.50;7.47;;;;;;;;;;5052415;28;20055;-61
2022/08/21 06:43:39;;;;;;;21.80;6.57;;;;;;;;;;5052102;28;20522;-61
2022/08/21 06:46:05;;;;;;;12.87;7.20;;;;;;;;;;5051253;28;20040;-61
2022/08/21 06:48:33;;;;;;;15.03;7.00;;;;;;;;;;5050640;28;20136;-61
2022/08/21 06:51:02;;;;;;;14.40;6.63;;;;;;;;;;5042984;28;20061;-61
2022/08/21 06:53:28;;;;;;;12.80;6.40;;;;;;;;;;5033149;28;20099;-61
2022/08/21 06:55:54;;;;;;;15.00;6.67;;;;;;;;;;5032581;28;20037;-62
2022/08/21 06:58:20;;;;;;;9.43;6.73;;;;;;;;;;5032947;28;20050;-61
2022/08/21 07:00:48;;;;;;;11.90;6.67;;;;;;;;;;5044323;28;20502;-62
2022/08/21 07:03:25;;;;;;;15.53;6.10;;;;;;;;;;5052580;28;20128;-62
2022/08/21 07:05:51;;;;;;;17.77;7.63;;;;;;;;;;5052279;28;20041;-61
2022/08/21 07:08:17;;;;;;;17.17;6.17;;;;;;;;;;5052527;28;20521;-61
2022/08/21 07:10:44;;;;;;;14.83;6.00;;;;;;;;;;5052530;28;20124;-61
2022/08/21 07:13:10;;;;;;;15.20;5.07;;;;;;;;;;5052793;28;20095;-62
2022/08/21 07:15:36;;;;;;;13.37;5.03;;;;;;;;;;5052721;28;20051;-62
2022/08/21 07:18:03;;;;;;;15.53;6.63;;;;;;;;;;5052049;28;20037;-61
2022/08/21 07:20:29;;;;;;;14.53;5.70;;;;;;;;;;5052392;28;20040;-61
2022/08/21 07:22:57;;;;;;;12.33;5.10;;;;;;;;;;5052495;28;20044;-61
2022/08/21 07:25:23;;;;;;;10.93;5.30;;;;;;;;;;5051971;28;20055;-61
2022/08/21 07:27:49;;;;;;;10.93;4.80;;;;;;;;;;5051611;28;20045;-61
2022/08/21 07:30:15;;;;;;;12.37;5.00;;;;;;;;;;5052039;28;20060;-61
2022/08/21 07:32:41;;;;;;;11.27;4.20;;;;;;;;;;5052318;28;20053;-61
2022/08/21 07:35:07;;;;;;;10.97;5.33;;;;;;;;;;5051815;28;20064;-61
2022/08/21 07:37:33;;;;;;;17.27;4.73;;;;;;;;;;5052162;28;20084;-61
2022/08/21 07:39:59;;;;;;;12.90;4.80;;;;;;;;;;5051654;28;20623;-62
2022/08/21 07:42:25;;;;;;;16.03;4.77;;;;;;;;;;5050626;28;20407;-62
2022/08/21 07:44:51;;;;;;;12.80;4.27;;;;;;;;;;5050872;28;20097;-62
2022/08/21 07:47:18;;;;;;;8.70;4.77;;;;;;;;;;5051259;28;20554;-62
2022/08/21 07:49:44;;;;;;;15.37;5.40;;;;;;;;;;5050909;28;20574;-62
2022/08/21 07:52:10;;;;;;;11.27;4.83;;;;;;;;;;5051921;28;20049;-62
2022/08/21 07:54:37;;;;;;;15.50;5.03;;;;;;;;;;5052041;28;20493;-61
2022/08/21 07:57:03;;;;;;;12.37;5.07;;;;;;;;;;5051284;28;20041;-62
2022/08/21 07:59:29;;;;;;;13.07;4.73;;;;;;;;;;5051228;28;20049;-62
2022/08/21 08:01:56;;;;;;;12.97;5.00;;;;;;;;;;5050322;28;20049;-62
2022/08/21 08:04:22;;;;;;;13.50;5.00;;;;;;;;;;5051261;28;20049;-62
2022/08/21 08:06:48;;;;;;;8.37;4.27;;;;;;;;;;5050423;28;20407;-62
2022/08/21 08:09:15;;;;;;;11.43;3.97;;;;;;;;;;5051186;28;20407;-61
2022/08/21 08:11:43;;;;;;;10.57;4.10;;;;;;;;;;5049899;28;20033;-62
2022/08/21 08:14:09;;;;;;;9.33;3.70;;;;;;;;;;5031635;28;20399;-62
2022/08/21 08:16:35;;;;;;;8.40;3.97;;;;;;;;;;5047837;28;20152;-62
2022/08/21 08:19:03;;;;;;;10.70;3.50;;;;;;;;;;5051712;28;20142;-62
2022/08/21 08:21:29;;;;;;;15.67;4.17;;;;;;;;;;5051172;28;20060;-62
2022/08/21 08:23:55;;;;;;;10.70;3.87;;;;;;;;;;5051177;28;20055;-62
2022/08/21 08:26:21;;;;;;;8.97;3.77;;;;;;;;;;5050255;28;20049;-62
2022/08/21 08:28:47;;;;;;;10.87;3.40;;;;;;;;;;5051125;28;20061;-62
2022/08/21 08:31:14;;;;;;;12.90;3.57;;;;;;;;;;5050883;28;20562;-63
2022/08/21 08:33:40;;;;;;;11.50;4.17;;;;;;;;;;5051137;28;20106;-62
2022/08/21 08:36:12;;;;;;;8.93;3.03;;;;;;;;;;5050761;28;20106;-62
2022/08/21 08:38:38;;;;;;;10.18;3.85;;;;;;;;;;5050711;28;20091;-62
2022/08/21 08:41:05;;;;;;;11.67;3.20;;;;;;;;;;5050784;28;20560;-62
2022/08/21 08:43:32;;;;;;;10.27;3.57;;;;;;;;;;5050777;28;20123;-61
2022/08/21 08:45:59;;;;;;;7.90;2.93;;;;;;;;;;5051026;28;20036;-62
2022/08/21 08:48:31;;;;;;;10.37;3.00;;;;;;;;;;5049443;28;20128;-62
2022/08/21 08:51:00;;;;;;;12.83;2.70;;;;;;;;;;5051113;28;20068;-62
2022/08/21 08:53:58;;;;;;;7.00;2.00;;;;;;;;;;5050566;28;20087;-62
2022/08/21 08:56:28;;;;;;;7.93;1.87;;;;;;;;;;5049320;28;20151;-62
2022/08/21 08:58:56;;;;;;;5.47;1.50;;;;;;;;;;5050098;28;20041;-62
2022/08/21 09:01:22;;;;;;;8.40;1.57;;;;;;;;;;5050693;28;20583;-62
2022/08/21 09:03:49;;;;;;;8.67;1.90;;;;;;;;;;5050703;28;20076;-61
2022/08/21 09:06:34;;;;;;;8.43;2.03;;;;;;;;;;5049646;28;20080;-61
2022/08/21 09:09:18;;;;;;;9.53;1.90;;;;;;;;;;5049991;28;20082;-62
2022/08/21 09:11:47;;;;;;;6.63;1.90;;;;;;;;;;5050485;28;20124;-62
2022/08/21 09:14:19;;;;;;;7.73;2.47;;;;;;;;;;5050375;28;20041;-62
2022/08/21 09:17:04;;;;;;;8.85;2.15;;;;;;;;;;5050412;28;20489;-59
2022/08/21 09:19:39;;;;;;;8.33;1.73;;;;;;;;;;5049752;28;20132;-59
2022/08/21 09:22:05;;;;;;;8.53;2.30;;;;;;;;;;5049894;28;20091;-59
2022/08/21 09:24:41;;;;;;;10.13;2.53;;;;;;;;;;5049767;28;20072;-59
2022/08/21 09:27:12;;;;;;;8.50;2.53;;;;;;;;;;5030646;28;20068;-59
2022/08/21 09:29:40;;;;;;;8.23;1.80;;;;;;;;;;5029679;28;20051;-59
2022/08/21 09:32:12;;;;;;;8.27;2.35;;;;;;;;;;5042765;28;20072;-59
2022/08/21 09:34:38;;;;;;;5.25;2.17;;;;;;;;;;5049250;28;20063;-59
2022/08/21 09:37:04;;;;;;;11.10;2.33;;;;;;;;;;5049838;28;20507;-59
2022/08/21 09:39:32;;;;;;;10.10;2.42;;;;;;;;;;5049672;28;20458;-60
2022/08/21 09:42:08;;;;;;;9.57;2.67;;;;;;;;;;5049503;28;20036;-60
2022/08/21 09:44:39;;;;;;;10.15;3.10;;;;;;;;;;5049454;28;20049;-60
2022/08/21 09:47:06;;;;;;;9.88;3.30;;;;;;;;;;5049422;28;20053;-59
2022/08/21 09:49:36;;;;;;;7.93;1.98;;;;;;;;;;5049462;28;20871;-59
2022/08/21 09:52:03;;;;;;;10.65;2.40;;;;;;;;;;5049526;28;20073;-59
2022/08/21 09:54:39;;;;;;;8.18;2.55;;;;;;;;;;5049108;28;20047;-59
2022/08/21 10:00:40;;;;;;;8.52;2.13;;;;;;;;;;5049188;28;20063;-60
2022/08/21 10:03:12;;;;;;;9.73;2.72;;;;;;;;;;5046429;28;20057;-60
2022/08/21 10:05:38;;;;;;;10.55;2.63;;;;;;;;;;5046572;28;20067;-61
2022/08/21 10:08:05;;;;;;;7.45;2.63;;;;;;;;;;5047687;28;20144;-61
2022/08/21 10:10:32;;;;;;;8.27;2.78;;;;;;;;;;5048325;28;20149;-60
2022/08/21 10:13:14;;;;;;;7.00;1.98;;;;;;;;;;5047877;28;20184;-60
2022/08/21 10:15:46;;;;;;;8.95;2.53;;;;;;;;;;5048592;28;20049;-61
2022/08/21 10:18:36;;;;;;;9.80;3.00;;;;;;;;;;5048375;28;20053;-61
2022/08/21 10:21:05;;;;;;;12.82;2.72;;;;;;;;;;5049182;28;20094;-60
2022/08/21 10:23:34;;;;;;;7.80;1.98;;;;;;;;;;5043592;28;20152;-60
2022/08/21 10:26:06;;;;;;;8.50;2.10;;;;;;;;;;5029334;28;20100;-60
2022/08/21 10:28:43;;;;;;;8.65;2.20;;;;;;;;;;5038668;28;20072;-61
2022/08/21 10:31:18;;;;;;;7.20;2.28;;;;;;;;;;5048137;28;20084;-60
2022/08/21 10:33:53;;;;;;;7.57;1.95;;;;;;;;;;5029124;28;20462;-60
2022/08/21 10:36:22;;;;;;;9.27;2.65;;;;;;;;;;5029226;28;20091;-60
2022/08/21 10:39:05;;;;;;;8.52;2.28;;;;;;;;;;5048502;28;20409;-60
2022/08/21 10:41:43;;;;;;;8.35;1.90;;;;;;;;;;5048507;28;20684;-60
2022/08/21 10:44:15;;;;;;;11.65;2.40;;;;;;;;;;5048501;28;20048;-60
2022/08/21 10:46:55;;;;;;;10.73;2.38;;;;;;;;;;5048371;28;20406;-60
2022/08/21 10:49:21;;;;;;;11.25;2.10;;;;;;;;;;5044685;28;20056;-60
2022/08/21 10:52:05;;;;;;;7.57;2.25;;;;;;;;;;5048380;28;20502;-60
2022/08/21 10:54:53;;;;;;;9.07;2.75;;;;;;;;;;5048191;28;20048;-60
2022/08/21 10:57:29;;;;;;;8.18;2.10;;;;;;;;;;5048586;28;20037;-60
2022/08/21 11:00:00;;;;;;;7.40;2.10;;;;;;;;;;5045022;28;20037;-60
2022/08/21 11:02:30;;;;;;;7.60;2.00;;;;;;;;;;5048173;28;20051;-60
2022/08/21 11:05:02;;;;;;;7.07;2.03;;;;;;;;;;5048660;28;20052;-61
2022/08/21 11:07:34;;;;;;;6.47;2.13;;;;;;;;;;5047727;28;20142;-61
2022/08/21 11:10:09;;;;;;;6.45;1.90;;;;;;;;;;5048396;28;20054;-60
2022/08/21 11:12:39;;;;;;;6.88;1.70;;;;;;;;;;5052180;28;20057;-61
2022/08/21 11:15:07;;;;;;;7.38;1.77;;;;;;;;;;5051855;28;20124;-61
2022/08/21 11:17:43;;;;;;;11.35;2.58;;;;;;;;;;5051448;28;20041;-61
2022/08/21 11:20:09;;;;;;;7.53;2.28;;;;;;;;;;5051556;28;20053;-61
2022/08/21 11:22:47;;;;;;;6.97;2.33;;;;;;;;;;5051325;28;20132;-61
2022/08/21 11:25:32;;;;;;;8.35;1.92;;;;;;;;;;5049817;28;20067;-61
2022/08/21 11:28:03;;;;;;;7.15;2.10;;;;;;;;;;5051889;28;20060;-61
2022/08/21 11:30:37;;;;;;;9.98;2.05;;;;;;;;;;5051713;28;20063;-61
2022/08/21 11:33:22;;;;;;;7.65;1.88;;;;;;;;;;5051193;28;20045;-61
2022/08/21 11:35:51;;;;;;;6.50;1.90;;;;;;;;;;5051907;28;20055;-61
2022/08/21 11:38:38;;;;;;;7.43;2.05;;;;;;;;;;5051456;28;20045;-61
2022/08/21 11:41:21;;;;;;;5.03;2.05;;;;;;;;;;5051487;28;20081;-61
2022/08/21 11:43:50;;;;;;;7.28;1.90;;;;;;;;;;5051558;28;20045;-61
2022/08/21 11:46:16;;;;;;;5.47;1.75;;;;;;;;;;5051348;28;20052;-61
2022/08/21 11:49:01;;;;;;;4.90;2.08;;;;;;;;;;5051266;28;20048;-61
2022/08/21 11:51:41;;;;;;;8.20;2.20;;;;;;;;;;5051113;28;20056;-61
2022/08/21 11:54:13;;;;;;;6.70;1.85;;;;;;;;;;5051563;28;20465;-61
2022/08/21 11:56:46;;;;;;;5.85;2.20;;;;;;;;;;5051357;28;20049;-61
2022/08/21 11:59:20;;;;;;;8.27;2.13;;;;;;;;;;5050543;28;20079;-61
2022/08/21 12:01:50;;;;;;;4.95;1.77;;;;;;;;;;5050920;28;20183;-61
2022/08/21 12:04:25;;;;;;;6.93;2.40;;;;;;;;;;5050594;28;20095;-61
2022/08/21 12:06:51;;;;;;;6.97;1.90;;;;;;;;;;5050763;28;20093;-61
2022/08/21 12:09:38;;;;;;;7.88;3.17;;;;;;;;;;5051078;28;20048;-61
2022/08/21 12:12:07;;;;;;;11.93;3.40;;;;;;;;;;5050833;28;20218;-61
2022/08/21 12:14:52;;;;;;;7.07;2.33;;;;;;;;;;5050526;28;20049;-61
2022/08/21 12:17:20;;;;;;;7.25;2.00;;;;;;;;;;5050970;28;20052;-61
2022/08/21 12:19:57;;;;;;;7.95;2.25;;;;;;;;;;5050439;28;20158;-61
2022/08/21 12:22:35;;;;;;;7.43;2.28;;;;;;;;;;5050406;28;20098;-61
2022/08/21 12:25:10;;;;;;;9.45;3.28;;;;;;;;;;5049849;28;20118;-61
2022/08/21 12:27:45;;;;;;;13.65;2.83;;;;;;;;;;5050926;28;20471;-61
2022/08/21 12:30:23;;;;;;;9.15;2.60;;;;;;;;;;5050328;28;20056;-61
2022/08/21 12:33:00;;;;;;;8.18;1.80;;;;;;;;;;5050416;28;20044;-61
2022/08/21 12:35:31;;;;;;;6.45;1.90;;;;;;;;;;5050076;28;20080;-61
2022/08/21 12:38:29;;;;;;;8.25;2.63;;;;;;;;;;5050186;28;20044;-61
2022/08/21 12:40:59;;;;;;;11.30;2.15;;;;;;;;;;5048911;28;20585;-60
2022/08/21 12:43:37;;;;;;;7.90;2.40;;;;;;;;;;5050780;28;20094;-61
2022/08/21 12:46:04;;;;;;;7.45;2.58;;;;;;;;;;5050219;28;20053;-60
2022/08/21 12:48:30;;;;;;;8.30;2.10;;;;;;;;;;5049960;28;20045;-61
2022/08/21 12:51:08;;;;;;;7.38;1.90;;;;;;;;;;5050181;28;20036;-60
2022/08/21 12:53:43;;;;;;;9.38;2.00;;;;;;;;;;5050389;28;20048;-60
2022/08/21 12:56:10;;;;;;;8.10;1.92;;;;;;;;;;5050276;28;20107;-61
2022/08/21 12:58:36;;;;;;;6.10;2.00;;;;;;;;;;5048521;28;20080;-61
2022/08/21 13:01:05;;;;;;;7.40;1.95;;;;;;;;;;5050094;28;20047;-60
2022/08/21 13:03:32;;;;;;;7.45;1.98;;;;;;;;;;5049708;28;20063;-60
2022/08/21 13:05:59;;;;;;;6.78;2.10;;;;;;;;;;5049423;28;20594;-61
2022/08/21 13:08:26;;;;;;;9.25;1.88;;;;;;;;;;5029180;28;20085;-60
2022/08/21 13:10:58;;;;;;;6.65;1.85;;;;;;;;;;5030183;28;20054;-61
2022/08/21 13:13:26;;;;;;;7.65;2.10;;;;;;;;;;5029662;28;20045;-60
2022/08/21 13:15:57;;;;;;;6.50;1.85;;;;;;;;;;5042187;28;20114;-60
2022/08/21 13:18:25;;;;;;;9.63;2.40;;;;;;;;;;5049463;28;20045;-61
2022/08/21 13:20:51;;;;;;;8.93;2.35;;;;;;;;;;5049135;28;20088;-61
2022/08/21 13:23:24;;;;;;;6.78;2.72;;;;;;;;;;5049536;28;20048;-60
2022/08/21 13:25:51;;;;;;;9.35;2.22;;;;;;;;;;5049750;28;20090;-60
2022/08/21 13:28:17;;;;;;;8.23;2.33;;;;;;;;;;5049371;28;20114;-61
2022/08/21 13:30:44;;;;;;;8.35;2.17;;;;;;;;;;5050127;28;20052;-61
2022/08/21 13:33:11;;;;;;;8.40;2.65;;;;;;;;;;5049382;28;20079;-60
2022/08/21 13:35:47;;;;;;;5.68;1.85;;;;;;;;;;5049515;28;20044;-61
2022/08/21 13:38:13;;;;;;;6.60;1.98;;;;;;;;;;5049529;28;20045;-61
2022/08/21 13:40:46;;;;;;;8.63;2.60;;;;;;;;;;5049346;28;20045;-61
2022/08/21 13:43:14;;;;;;;8.38;2.35;;;;;;;;;;5049831;28;20053;-61
2022/08/21 13:45:44;;;;;;;6.80;2.33;;;;;;;;;;5049300;28;20041;-61
2022/08/21 13:48:10;;;;;;;6.88;2.33;;;;;;;;;;5048367;28;20045;-60
2022/08/21 13:50:38;;;;;;;5.80;2.05;;;;;;;;;;5048626;28;20052;-63
2022/08/21 13:53:06;;;;;;;6.88;1.85;;;;;;;;;;5049402;28;20495;-62
2022/08/21 13:55:37;;;;;;;8.18;2.17;;;;;;;;;;5048904;28;20045;-62
2022/08/21 13:58:04;;;;;;;9.07;2.50;;;;;;;;;;5048586;28;20045;-62
2022/08/21 14:00:34;;;;;;;7.60;2.05;;;;;;;;;;5049332;28;20041;-62
2022/08/21 14:03:06;;;;;;;15.15;3.35;;;;;;;;;;5049021;28;20052;-61
2022/08/21 14:05:34;;;;;;;9.00;2.40;;;;;;;;;;5049156;28;20525;-62
2022/08/21 14:08:15;;;;;;;6.72;2.22;;;;;;;;;;5048662;28;20513;-62
2022/08/21 14:10:45;;;;;;;9.00;2.20;;;;;;;;;;5049390;28;20056;-61
2022/08/21 14:13:20;;;;;;;10.30;2.40;;;;;;;;;;5048578;28;20044;-61
2022/08/21 14:15:54;;;;;;;7.25;2.47;;;;;;;;;;5029366;28;20114;-61
2022/08/21 14:18:20;;;;;;;10.80;2.17;;;;;;;;;;5029225;28;20094;-62
2022/08/21 14:20:46;;;;;;;8.95;2.60;;;;;;;;;;5029310;28;20582;-61
2022/08/21 14:23:13;;;;;;;9.68;2.83;;;;;;;;;;5028975;28;20050;-61
2022/08/21 14:25:45;;;;;;;9.43;2.15;;;;;;;;;;5029209;28;20095;-61
2022/08/21 14:28:11;;;;;;;8.75;2.30;;;;;;;;;;5028647;28;20057;-61
2022/08/21 14:30:39;;;;;;;7.35;2.00;;;;;;;;;;5029308;28;20535;-62
2022/08/21 14:33:09;;;;;;;5.72;1.63;;;;;;;;;;5029503;28;20068;-61
2022/08/21 14:35:35;;;;;;;6.78;2.03;;;;;;;;;;5034726;28;20043;-62
2022/08/21 14:38:01;;;;;;;9.50;2.83;;;;;;;;;;5048927;28;20399;-62
2022/08/21 14:40:27;;;;;;;8.07;2.17;;;;;;;;;;5049037;28;20146;-61